createdAt,value
2018-08-30T00:00:07.971Z,9.50
2018-08-30T00:00:43.696Z,10.50
2018-08-30T00:01:19.386Z,9.63
2018-08-30T00:01:53.553Z,9.37
2018-08-30T00:02:27.419Z,9.30
2018-08-30T00:03:01.342Z,9.70
2018-08-30T00:03:35.190Z,10.03
2018-08-30T00:04:09.069Z,10.50
2018-08-30T00:04:42.922Z,9.90
2018-08-30T00:05:17.681Z,8.80
2018-08-30T00:05:51.707Z,9.00
2018-08-30T00:06:25.549Z,10.57
2018-08-30T00:06:59.389Z,9.67
2018-08-30T00:07:33.227Z,9.80
2018-08-30T00:08:07.443Z,9.80
2018-08-30T00:08:41.278Z,9.73
2018-08-30T00:09:15.159Z,9.20
2018-08-30T00:09:49.031Z,10.00
2018-08-30T00:10:23.351Z,9.70
2018-08-30T00:10:57.223Z,9.97
2018-08-30T00:11:31.091Z,10.90
2018-08-30T00:12:05.303Z,9.60
2018-08-30T00:12:39.203Z,8.70
2018-08-30T00:13:14.875Z,9.00
2018-08-30T00:13:48.829Z,10.30
2018-08-30T00:14:22.665Z,9.30
2018-08-30T00:14:56.488Z,9.43
2018-08-30T00:15:30.693Z,9.40
2018-08-30T00:16:05.088Z,8.90
2018-08-30T00:16:39.329Z,9.00
2018-08-30T00:17:20.308Z,9.87
2018-08-30T00:17:54.953Z,9.77
2018-08-30T00:18:28.823Z,9.63
2018-08-30T00:19:03.025Z,9.80
2018-08-30T00:19:37.267Z,8.93
2018-08-30T00:20:11.499Z,9.63
2018-08-30T00:20:45.395Z,9.53
2018-08-30T00:21:19.295Z,10.00
2018-08-30T00:21:53.240Z,10.10
2018-08-30T00:22:27.439Z,10.13
2018-08-30T00:23:01.692Z,8.70
2018-08-30T00:23:35.710Z,9.87
2018-08-30T00:24:09.511Z,8.57
2018-08-30T00:24:43.334Z,9.53
2018-08-30T00:25:17.219Z,10.37
2018-08-30T00:25:51.417Z,9.20
2018-08-30T00:26:25.628Z,9.67
2018-08-30T00:26:59.824Z,9.47
2018-08-30T00:27:33.676Z,10.20
2018-08-30T00:28:07.889Z,10.20
2018-08-30T00:28:41.855Z,9.50
2018-08-30T00:29:16.439Z,9.60
2018-08-30T00:29:50.285Z,9.97
2018-08-30T00:30:24.177Z,10.33
2018-08-30T00:30:58.443Z,9.40
2018-08-30T00:31:32.275Z,9.77
2018-08-30T00:32:06.872Z,9.00
2018-08-30T00:32:40.712Z,9.03
2018-08-30T00:33:15.017Z,10.43
2018-08-30T00:33:48.967Z,10.17
2018-08-30T00:34:22.923Z,9.70
2018-08-30T00:34:56.845Z,9.73
2018-08-30T00:35:30.713Z,10.80
2018-08-30T00:36:04.975Z,9.40
2018-08-30T00:36:38.915Z,12.07
2018-08-30T00:37:13.067Z,11.00
2018-08-30T00:37:47.587Z,11.10
2018-08-30T00:38:22.097Z,9.73
2018-08-30T00:38:55.973Z,9.33
2018-08-30T00:39:29.851Z,9.50
2018-08-30T00:40:03.743Z,9.63
2018-08-30T00:40:38.285Z,9.30
2018-08-30T00:41:12.268Z,9.87
2018-08-30T00:41:46.151Z,10.03
2018-08-30T00:42:20.361Z,9.63
2018-08-30T00:42:54.570Z,10.40
2018-08-30T00:43:29.338Z,10.00
2018-08-30T00:44:03.242Z,9.67
2018-08-30T00:44:37.101Z,10.40
2018-08-30T00:45:11.645Z,9.07
2018-08-30T00:45:45.860Z,9.87
2018-08-30T00:46:19.927Z,8.97
2018-08-30T00:46:54.140Z,8.90
2018-08-30T00:47:27.985Z,9.60
2018-08-30T00:48:02.989Z,9.60
2018-08-30T00:48:37.173Z,9.57
2018-08-30T00:49:11.052Z,9.73
2018-08-30T00:49:45.246Z,8.83
2018-08-30T00:50:19.133Z,9.77
2018-08-30T00:50:53.010Z,10.23
2018-08-30T00:51:26.910Z,9.53
2018-08-30T00:52:01.159Z,9.70
2018-08-30T00:52:35.007Z,10.30
2018-08-30T00:53:08.849Z,10.00
2018-08-30T00:53:42.687Z,9.80
2018-08-30T00:54:16.565Z,9.20
2018-08-30T00:54:50.441Z,9.17
2018-08-30T00:55:24.350Z,10.70
2018-08-30T00:55:58.590Z,10.17
2018-08-30T00:56:32.486Z,10.23
2018-08-30T00:57:06.323Z,9.37
2018-08-30T00:57:40.528Z,10.20
2018-08-30T00:58:14.366Z,10.27
2018-08-30T00:58:48.233Z,10.07
2018-08-30T00:59:22.439Z,9.40
2018-08-30T00:59:56.657Z,9.47
2018-08-30T01:00:30.544Z,9.63
2018-08-30T01:01:04.491Z,9.67
2018-08-30T01:01:38.375Z,8.70
2018-08-30T01:02:12.584Z,10.43
2018-08-30T01:02:46.431Z,9.10
2018-08-30T01:03:20.535Z,9.30
2018-08-30T01:03:54.359Z,9.50
2018-08-30T01:04:28.453Z,9.27
2018-08-30T01:05:04.356Z,9.30
2018-08-30T01:05:38.394Z,9.50
2018-08-30T01:06:13.444Z,8.53
2018-08-30T01:06:47.921Z,9.93
2018-08-30T01:07:22.397Z,9.50
2018-08-30T01:07:56.963Z,9.43
2018-08-30T01:08:30.926Z,9.10
2018-08-30T01:09:06.010Z,9.73
2018-08-30T01:09:40.233Z,10.00
2018-08-30T01:10:14.109Z,9.40
2018-08-30T01:10:47.957Z,8.83
2018-08-30T01:11:22.513Z,9.40
2018-08-30T01:11:56.445Z,9.90
2018-08-30T01:12:30.294Z,9.13
2018-08-30T01:13:05.082Z,10.07
2018-08-30T01:13:38.940Z,8.20
2018-08-30T01:14:12.800Z,9.10
2018-08-30T01:14:46.918Z,9.40
2018-08-30T01:15:21.561Z,8.90
2018-08-30T01:15:55.772Z,9.03
2018-08-30T01:16:29.971Z,8.83
2018-08-30T01:17:03.860Z,8.70
2018-08-30T01:17:37.703Z,8.77
2018-08-30T01:18:12.405Z,8.67
2018-08-30T01:18:46.600Z,9.50
2018-08-30T01:19:20.507Z,8.60
2018-08-30T01:19:54.394Z,8.57
2018-08-30T01:20:28.406Z,8.57
2018-08-30T01:21:02.249Z,9.23
2018-08-30T01:21:36.113Z,8.60
2018-08-30T01:22:09.965Z,9.73
2018-08-30T01:22:43.814Z,8.67
2018-08-30T01:23:18.014Z,9.23
2018-08-30T01:23:51.851Z,9.70
2018-08-30T01:24:26.025Z,9.27
2018-08-30T01:24:59.959Z,8.93
2018-08-30T01:25:33.862Z,9.23
2018-08-30T01:26:08.029Z,8.80
2018-08-30T01:26:42.097Z,9.70
2018-08-30T01:27:15.981Z,8.73
2018-08-30T01:27:50.202Z,8.93
2018-08-30T01:28:24.043Z,8.70
2018-08-30T01:28:57.905Z,9.03
2018-08-30T01:29:32.052Z,9.23
2018-08-30T01:30:05.882Z,8.30
2018-08-30T01:30:39.727Z,8.00
2018-08-30T01:31:14.269Z,8.87
2018-08-30T01:31:48.341Z,9.70
2018-08-30T01:32:22.604Z,9.07
2018-08-30T01:32:56.457Z,8.30
2018-08-30T01:33:30.322Z,8.30
2018-08-30T01:34:04.562Z,8.50
2018-08-30T01:34:38.779Z,8.60
2018-08-30T01:35:15.642Z,8.73
2018-08-30T01:35:49.875Z,8.97
2018-08-30T01:36:23.843Z,9.23
2018-08-30T01:36:58.015Z,8.00
2018-08-30T01:37:32.232Z,9.17
2018-08-30T01:38:06.388Z,8.63
2018-08-30T01:38:40.511Z,8.30
2018-08-30T01:39:15.459Z,8.60
2018-08-30T01:39:49.359Z,9.53
2018-08-30T01:40:23.557Z,8.30
2018-08-30T01:40:58.069Z,7.80
2018-08-30T01:41:34.074Z,7.90
2018-08-30T01:42:09.136Z,8.13
2018-08-30T01:42:43.038Z,8.43
2018-08-30T01:43:17.221Z,8.13
2018-08-30T01:43:51.221Z,8.23
2018-08-30T01:44:25.531Z,8.37
2018-08-30T01:45:00.235Z,8.90
2018-08-30T01:45:34.091Z,7.90
2018-08-30T01:46:09.264Z,8.70
2018-08-30T01:46:43.405Z,8.50
2018-08-30T01:47:17.267Z,8.80
2018-08-30T01:47:51.489Z,9.13
2018-08-30T01:48:25.377Z,9.53
2018-08-30T01:49:00.193Z,8.73
2018-08-30T01:49:34.078Z,8.83
2018-08-30T01:50:07.961Z,8.73
2018-08-30T01:50:42.203Z,8.80
2018-08-30T01:51:16.385Z,8.20
2018-08-30T01:51:50.269Z,8.40
2018-08-30T01:52:24.503Z,8.97
2018-08-30T01:52:58.425Z,8.63
2018-08-30T01:53:33.525Z,8.23
2018-08-30T01:54:07.638Z,7.70
2018-08-30T01:54:42.119Z,8.20
2018-08-30T01:55:19.029Z,8.93
2018-08-30T01:55:54.587Z,8.80
2018-08-30T01:56:28.415Z,8.93
2018-08-30T01:57:02.354Z,8.77
2018-08-30T01:57:36.201Z,8.63
2018-08-30T01:58:10.106Z,10.20
2018-08-30T01:58:43.957Z,8.20
2018-08-30T01:59:17.813Z,8.70
2018-08-30T01:59:52.028Z,9.00
2018-08-30T02:00:26.211Z,8.93
2018-08-30T02:01:00.390Z,9.20
2018-08-30T02:01:34.251Z,9.40
2018-08-30T02:02:08.442Z,9.27
2018-08-30T02:02:42.682Z,10.00
2018-08-30T02:03:16.559Z,8.60
2018-08-30T02:03:50.783Z,8.90
2018-08-30T02:04:25.326Z,8.73
2018-08-30T02:04:59.611Z,8.40
2018-08-30T02:05:33.481Z,8.13
2018-08-30T02:06:08.007Z,9.77
2018-08-30T02:06:42.143Z,6.97
2018-08-30T02:07:16.713Z,7.90
2018-08-30T02:07:50.579Z,9.63
2018-08-30T02:08:24.818Z,8.37
2018-08-30T02:08:59.507Z,7.83
2018-08-30T02:09:33.372Z,8.47
2018-08-30T02:10:07.808Z,8.60
2018-08-30T02:10:41.689Z,9.60
2018-08-30T02:11:15.619Z,8.80
2018-08-30T02:11:49.465Z,8.67
2018-08-30T02:12:23.337Z,8.97
2018-08-30T02:12:57.210Z,8.70
2018-08-30T02:13:31.058Z,9.03
2018-08-30T02:14:05.562Z,9.00
2018-08-30T02:14:40.668Z,7.87
2018-08-30T02:15:15.880Z,9.00
2018-08-30T02:15:49.886Z,8.90
2018-08-30T02:16:23.740Z,8.53
2018-08-30T02:16:57.601Z,8.60
2018-08-30T02:17:31.823Z,8.37
2018-08-30T02:18:05.810Z,8.53
2018-08-30T02:18:39.658Z,8.80
2018-08-30T02:19:14.570Z,8.77
2018-08-30T02:19:48.432Z,8.40
2018-08-30T02:20:22.640Z,9.00
2018-08-30T02:20:56.643Z,8.23
2018-08-30T02:21:30.480Z,8.53
2018-08-30T02:22:04.329Z,8.60
2018-08-30T02:22:38.220Z,8.60
2018-08-30T02:23:12.194Z,8.60
2018-08-30T02:23:46.147Z,7.80
2018-08-30T02:24:20.679Z,8.80
2018-08-30T02:24:54.544Z,9.03
2018-08-30T02:25:28.400Z,7.83
2018-08-30T02:26:02.228Z,7.80
2018-08-30T02:26:36.432Z,9.33
2018-08-30T02:27:10.626Z,8.40
2018-08-30T02:27:44.706Z,7.97
2018-08-30T02:28:18.561Z,9.10
2018-08-30T02:28:52.422Z,8.83
2018-08-30T02:29:26.614Z,8.00
2018-08-30T02:30:01.137Z,8.60
2018-08-30T02:30:35.138Z,9.27
2018-08-30T02:31:09.407Z,9.60
2018-08-30T02:31:43.259Z,7.70
2018-08-30T02:32:17.776Z,8.73
2018-08-30T02:32:51.635Z,8.70
2018-08-30T02:33:25.463Z,8.50
2018-08-30T02:33:59.687Z,8.93
2018-08-30T02:34:33.557Z,9.10
2018-08-30T02:35:07.735Z,7.60
2018-08-30T02:35:41.974Z,7.33
2018-08-30T02:36:15.822Z,8.27
2018-08-30T02:36:49.639Z,8.37
2018-08-30T02:38:03.853Z,8.40
2018-08-30T02:38:37.763Z,8.30
2018-08-30T02:39:13.159Z,8.90
2018-08-30T02:39:47.316Z,8.87
2018-08-30T02:40:21.490Z,8.67
2018-08-30T02:40:55.666Z,8.23
2018-08-30T02:41:30.191Z,8.87
2018-08-30T02:42:04.766Z,7.87
2018-08-30T02:42:38.607Z,9.00
2018-08-30T02:43:14.486Z,8.77
2018-08-30T02:43:48.332Z,7.90
2018-08-30T02:44:22.182Z,8.03
2018-08-30T02:44:56.028Z,9.93
2018-08-30T02:45:29.892Z,8.97
2018-08-30T02:46:04.257Z,8.73
2018-08-30T02:46:38.252Z,8.93
2018-08-30T02:47:12.089Z,9.00
2018-08-30T02:47:45.961Z,8.87
2018-08-30T02:48:19.828Z,8.70
2018-08-30T02:48:53.708Z,9.20
2018-08-30T02:49:28.562Z,8.50
2018-08-30T02:50:02.726Z,8.47
2018-08-30T02:50:37.047Z,7.47
2018-08-30T02:51:10.913Z,8.27
2018-08-30T02:51:45.086Z,8.67
2018-08-30T02:52:18.948Z,8.97
2018-08-30T02:52:52.816Z,8.10
2018-08-30T02:53:26.667Z,9.00
2018-08-30T02:54:01.128Z,8.80
2018-08-30T02:54:35.008Z,9.00
2018-08-30T02:55:09.194Z,7.63
2018-08-30T02:55:43.042Z,9.30
2018-08-30T02:56:16.926Z,8.33
2018-08-30T02:56:51.129Z,8.30
2018-08-30T02:57:25.336Z,8.87
2018-08-30T02:57:59.234Z,8.97
2018-08-30T02:58:33.114Z,9.07
2018-08-30T02:59:07.004Z,8.47
2018-08-30T02:59:41.274Z,8.60
2018-08-30T03:00:15.530Z,9.53
2018-08-30T03:00:49.402Z,8.47
2018-08-30T03:01:23.378Z,9.47
2018-08-30T03:01:58.381Z,8.37
2018-08-30T03:02:32.954Z,8.37
2018-08-30T03:03:07.180Z,8.30
2018-08-30T03:03:41.050Z,8.97
2018-08-30T03:04:15.006Z,9.00
2018-08-30T03:04:48.937Z,8.30
2018-08-30T03:05:23.140Z,8.50
2018-08-30T03:05:57.021Z,8.40
2018-08-30T03:06:31.155Z,8.53
2018-08-30T03:07:05.046Z,9.00
2018-08-30T03:07:38.894Z,7.77
2018-08-30T03:08:13.139Z,9.07
2018-08-30T03:08:47.440Z,9.17
2018-08-30T03:09:21.310Z,8.73
2018-08-30T03:09:55.195Z,8.60
2018-08-30T03:10:29.084Z,9.00
2018-08-30T03:11:03.284Z,8.53
2018-08-30T03:11:37.196Z,9.30
2018-08-30T03:12:11.056Z,8.70
2018-08-30T03:12:44.904Z,8.50
2018-08-30T03:13:18.740Z,9.17
2018-08-30T03:13:52.596Z,9.27
2018-08-30T03:14:26.483Z,8.60
2018-08-30T03:15:08.165Z,8.83
2018-08-30T03:15:42.224Z,8.47
2018-08-30T03:16:16.180Z,8.50
2018-08-30T03:16:50.340Z,8.77
2018-08-30T03:17:24.216Z,8.63
2018-08-30T03:17:58.078Z,8.80
2018-08-30T03:18:31.923Z,7.83
2018-08-30T03:19:06.134Z,8.93
2018-08-30T03:19:40.350Z,8.10
2018-08-30T03:20:15.081Z,8.53
2018-08-30T03:20:49.035Z,9.80
2018-08-30T03:21:22.928Z,8.70
2018-08-30T03:21:56.792Z,8.33
2018-08-30T03:22:30.862Z,9.17
2018-08-30T03:23:05.056Z,9.47
2018-08-30T03:23:38.924Z,9.70
2018-08-30T03:24:13.444Z,8.93
2018-08-30T03:24:47.645Z,9.20
2018-08-30T03:25:21.549Z,9.80
2018-08-30T03:25:55.480Z,9.00
2018-08-30T03:26:29.376Z,8.90
2018-08-30T03:27:03.580Z,9.17
2018-08-30T03:27:37.842Z,9.00
2018-08-30T03:28:11.740Z,9.83
2018-08-30T03:28:45.647Z,9.50
2018-08-30T03:29:19.530Z,9.53
2018-08-30T03:29:53.394Z,9.13
2018-08-30T03:30:27.407Z,8.30
2018-08-30T03:31:01.507Z,9.00
2018-08-30T03:31:36.267Z,9.17
2018-08-30T03:32:10.154Z,9.27
2018-08-30T03:32:44.000Z,7.70
2018-08-30T03:33:17.827Z,8.30
2018-08-30T03:33:51.717Z,9.00
2018-08-30T03:34:25.658Z,9.10
2018-08-30T03:34:59.803Z,9.83
2018-08-30T03:35:33.774Z,8.83
2018-08-30T03:36:07.988Z,9.17
2018-08-30T03:36:41.899Z,8.77
2018-08-30T03:37:16.632Z,10.10
2018-08-30T03:37:50.482Z,9.37
2018-08-30T03:38:24.332Z,8.53
2018-08-30T03:38:58.215Z,9.80
2018-08-30T03:39:35.952Z,9.60
2018-08-30T03:40:10.462Z,9.63
2018-08-30T03:40:44.349Z,9.67
2018-08-30T03:41:18.864Z,8.97
2018-08-30T03:41:53.091Z,9.67
2018-08-30T03:42:27.370Z,9.70
2018-08-30T03:43:01.255Z,9.73
2018-08-30T03:43:35.108Z,9.30
2018-08-30T03:44:08.947Z,8.60
2018-08-30T03:44:43.920Z,8.20
2018-08-30T03:45:17.890Z,9.37
2018-08-30T03:45:51.824Z,9.07
2018-08-30T03:46:26.262Z,9.10
2018-08-30T03:47:00.593Z,10.90
2018-08-30T03:47:34.525Z,9.07
2018-08-30T03:48:08.870Z,9.80
2018-08-30T03:48:42.810Z,10.20
2018-08-30T03:49:16.681Z,9.60
2018-08-30T03:49:50.640Z,10.10
2018-08-30T03:50:25.522Z,10.37
2018-08-30T03:51:00.126Z,9.67
2018-08-30T03:51:34.331Z,9.10
2018-08-30T03:52:08.724Z,9.87
2018-08-30T03:52:43.182Z,10.47
2018-08-30T03:53:17.417Z,9.00
2018-08-30T03:53:51.484Z,8.83
2018-08-30T03:54:25.740Z,9.53
2018-08-30T03:55:00.338Z,11.07
2018-08-30T03:55:34.356Z,9.90
2018-08-30T03:56:08.651Z,9.83
2018-08-30T03:56:42.589Z,10.60
2018-08-30T03:57:23.326Z,10.20
2018-08-30T03:57:57.292Z,9.87
2018-08-30T03:58:31.293Z,9.93
2018-08-30T03:59:05.386Z,8.90
2018-08-30T03:59:39.302Z,9.03
2018-08-30T04:00:14.075Z,9.43
2018-08-30T04:00:48.248Z,10.60
2018-08-30T04:01:22.122Z,9.30
2018-08-30T04:01:56.088Z,10.20
2018-08-30T04:02:29.956Z,9.70
2018-08-30T04:03:04.222Z,9.37
2018-08-30T04:03:38.078Z,9.60
2018-08-30T04:04:12.124Z,9.20
2018-08-30T04:04:46.535Z,9.70
2018-08-30T04:05:20.434Z,9.60
2018-08-30T04:05:54.272Z,9.63
2018-08-30T04:06:28.205Z,8.47
2018-08-30T04:07:02.070Z,10.07
2018-08-30T04:07:36.271Z,10.80
2018-08-30T04:08:10.218Z,12.10
2018-08-30T04:08:44.410Z,10.87
2018-08-30T04:09:18.266Z,9.70
2018-08-30T04:09:52.136Z,9.30
2018-08-30T04:10:26.418Z,10.00
2018-08-30T04:11:00.326Z,9.90
2018-08-30T04:11:34.198Z,8.90
2018-08-30T04:12:08.062Z,10.57
2018-08-30T04:12:41.941Z,9.73
2018-08-30T04:13:16.004Z,9.90
2018-08-30T04:13:49.869Z,9.70
2018-08-30T04:14:23.698Z,9.70
2018-08-30T04:14:57.674Z,9.67
2018-08-30T04:15:32.044Z,9.13
2018-08-30T04:16:05.896Z,9.60
2018-08-30T04:16:40.153Z,8.87
2018-08-30T04:17:14.362Z,10.43
2018-08-30T04:17:48.204Z,10.10
2018-08-30T04:18:22.053Z,9.03
2018-08-30T04:19:05.963Z,10.20
2018-08-30T04:19:40.160Z,10.27
2018-08-30T04:20:14.017Z,9.23
2018-08-30T04:20:47.885Z,10.13
2018-08-30T04:21:22.101Z,9.70
2018-08-30T04:21:56.753Z,10.50
2018-08-30T04:22:31.068Z,10.60
2018-08-30T04:23:05.019Z,9.37
2018-08-30T04:23:38.859Z,10.07
2018-08-30T04:24:13.364Z,9.10
2018-08-30T04:24:47.554Z,10.13
2018-08-30T04:25:22.080Z,10.00
2018-08-30T04:25:55.919Z,9.90
2018-08-30T04:26:30.414Z,9.13
2018-08-30T04:27:04.587Z,10.23
2018-08-30T04:27:38.624Z,9.00
2018-08-30T04:28:12.490Z,9.53
2018-08-30T04:28:46.682Z,9.40
2018-08-30T04:29:20.684Z,9.50
2018-08-30T04:29:54.526Z,9.90
2018-08-30T04:30:28.466Z,10.50
2018-08-30T04:31:02.288Z,8.03
2018-08-30T04:31:37.158Z,9.73
2018-08-30T04:32:11.268Z,9.67
2018-08-30T04:32:45.184Z,9.80
2018-08-30T04:33:19.010Z,9.63
2018-08-30T04:33:53.102Z,9.80
2018-08-30T04:34:27.256Z,9.23
2018-08-30T04:35:01.112Z,9.60
2018-08-30T04:35:34.934Z,10.00
2018-08-30T04:36:09.144Z,8.93
2018-08-30T04:36:43.002Z,10.13
2018-08-30T04:37:17.048Z,9.37
2018-08-30T04:37:51.232Z,10.40
2018-08-30T04:38:25.376Z,9.77
2018-08-30T04:38:59.574Z,9.30
2018-08-30T04:39:33.748Z,9.73
2018-08-30T04:40:07.928Z,11.10
2018-08-30T04:40:42.124Z,9.73
2018-08-30T04:41:15.974Z,11.20
2018-08-30T04:41:49.839Z,9.67
2018-08-30T04:42:24.044Z,9.43
2018-08-30T04:42:58.372Z,9.17
2018-08-30T04:43:32.210Z,10.30
2018-08-30T04:44:06.148Z,9.90
2018-08-30T04:44:40.362Z,9.87
2018-08-30T04:45:15.983Z,9.43
2018-08-30T04:45:49.872Z,10.73
2018-08-30T04:46:24.082Z,9.53
2018-08-30T04:46:57.928Z,10.13
2018-08-30T04:47:31.810Z,8.60
2018-08-30T04:48:05.996Z,9.97
2018-08-30T04:48:39.866Z,9.10
2018-08-30T04:49:16.538Z,8.50
2018-08-30T04:49:50.357Z,9.73
2018-08-30T04:50:24.239Z,9.67
2018-08-30T04:50:58.614Z,9.17
2018-08-30T04:51:32.469Z,9.23
2018-08-30T04:52:06.324Z,9.87
2018-08-30T04:52:40.194Z,9.90
2018-08-30T04:53:14.390Z,10.70
2018-08-30T04:53:48.680Z,9.93
2018-08-30T04:54:22.604Z,10.00
2018-08-30T04:54:56.440Z,9.47
2018-08-30T04:55:30.327Z,9.80
2018-08-30T04:56:04.534Z,10.23
2018-08-30T04:56:38.727Z,9.50
2018-08-30T04:57:12.928Z,9.60
2018-08-30T04:57:46.958Z,9.93
2018-08-30T04:58:20.838Z,9.70
2018-08-30T04:58:54.768Z,9.67
2018-08-30T04:59:28.631Z,9.50
2018-08-30T05:00:02.530Z,10.20
2018-08-30T05:00:36.431Z,9.90
2018-08-30T05:01:10.300Z,10.00
2018-08-30T05:01:44.200Z,9.80
2018-08-30T05:02:18.834Z,9.67
2018-08-30T05:02:52.726Z,9.97
2018-08-30T05:03:26.927Z,11.30
2018-08-30T05:04:00.802Z,10.43
2018-08-30T05:04:34.648Z,9.27
2018-08-30T05:05:08.874Z,9.87
2018-08-30T05:05:42.819Z,11.03
2018-08-30T05:06:17.049Z,9.90
2018-08-30T05:06:51.000Z,10.07
2018-08-30T05:07:25.238Z,10.07
2018-08-30T05:07:59.140Z,9.27
2018-08-30T05:08:33.381Z,10.10
2018-08-30T05:09:11.685Z,10.03
2018-08-30T05:09:45.548Z,8.93
2018-08-30T05:10:19.430Z,9.67
2018-08-30T05:10:53.342Z,10.23
2018-08-30T05:11:27.256Z,9.83
2018-08-30T05:12:01.127Z,10.10
2018-08-30T05:12:35.006Z,9.70
2018-08-30T05:13:09.248Z,9.70
2018-08-30T05:13:43.428Z,10.17
2018-08-30T05:14:17.358Z,10.40
2018-08-30T05:14:51.222Z,10.37
2018-08-30T05:15:25.372Z,9.90
2018-08-30T05:15:59.288Z,10.70
2018-08-30T05:16:33.591Z,10.10
2018-08-30T05:17:07.630Z,10.00
2018-08-30T05:17:42.259Z,10.83
2018-08-30T05:18:16.167Z,9.83
2018-08-30T05:18:50.421Z,10.27
2018-08-30T05:19:24.299Z,9.53
2018-08-30T05:19:58.492Z,10.60
2018-08-30T05:20:32.393Z,10.57
2018-08-30T05:21:06.296Z,9.47
2018-08-30T05:21:40.197Z,10.00
2018-08-30T05:22:14.420Z,9.60
2018-08-30T05:22:48.329Z,10.93
2018-08-30T05:23:22.235Z,10.37
2018-08-30T05:23:56.213Z,10.63
2018-08-30T05:24:30.450Z,10.50
2018-08-30T05:25:04.494Z,9.33
2018-08-30T05:25:38.316Z,10.10
2018-08-30T05:26:12.195Z,10.47
2018-08-30T05:26:46.395Z,9.20
2018-08-30T05:27:20.261Z,9.73
2018-08-30T05:27:54.208Z,9.93
2018-08-30T05:28:28.091Z,9.73
2018-08-30T05:29:02.029Z,9.73
2018-08-30T05:29:35.943Z,10.60
2018-08-30T05:30:10.041Z,10.67
2018-08-30T05:30:43.908Z,10.60
2018-08-30T05:31:17.980Z,9.53
2018-08-30T05:31:52.039Z,10.90
2018-08-30T05:32:25.912Z,9.90
2018-08-30T05:33:00.756Z,9.83
2018-08-30T05:33:34.670Z,10.10
2018-08-30T05:34:08.585Z,10.27
2018-08-30T05:34:42.459Z,11.40
2018-08-30T05:35:16.684Z,10.73
2018-08-30T05:35:51.321Z,10.20
2018-08-30T05:36:25.376Z,10.10
2018-08-30T05:36:59.573Z,10.67
2018-08-30T05:37:33.465Z,10.17
2018-08-30T05:38:07.345Z,10.17
2018-08-30T05:38:41.445Z,10.83
2018-08-30T05:39:15.461Z,10.10
2018-08-30T05:39:49.485Z,10.57
2018-08-30T05:40:23.733Z,9.53
2018-08-30T05:40:57.599Z,9.97
2018-08-30T05:41:31.526Z,10.40
2018-08-30T05:42:06.135Z,9.40
2018-08-30T05:42:40.007Z,10.90
2018-08-30T05:43:20.577Z,9.57
2018-08-30T05:43:54.477Z,10.80
2018-08-30T05:44:28.375Z,10.40
2018-08-30T05:45:02.267Z,9.47
2018-08-30T05:45:36.583Z,12.00
2018-08-30T05:46:10.822Z,11.47
2018-08-30T05:46:44.728Z,10.37
2018-08-30T05:47:18.637Z,10.80
2018-08-30T05:47:52.535Z,9.63
2018-08-30T05:48:26.443Z,10.00
2018-08-30T05:49:00.345Z,10.37
2018-08-30T05:49:34.214Z,10.43
2018-08-30T05:50:08.122Z,11.27
2018-08-30T05:50:42.011Z,11.57
2018-08-30T05:51:15.903Z,11.53
2018-08-30T05:51:49.793Z,11.13
2018-08-30T05:52:23.735Z,11.50
2018-08-30T05:52:57.666Z,12.27
2018-08-30T05:53:31.577Z,11.40
2018-08-30T05:54:06.099Z,11.30
2018-08-30T05:54:40.599Z,11.13
2018-08-30T05:55:14.857Z,11.53
2018-08-30T05:55:48.719Z,10.80
2018-08-30T05:56:23.129Z,10.90
2018-08-30T05:56:57.146Z,10.87
2018-08-30T05:57:31.197Z,11.07
2018-08-30T05:58:05.087Z,10.80
2018-08-30T05:58:39.022Z,9.83
2018-08-30T05:59:13.481Z,11.10
2018-08-30T05:59:48.011Z,11.90
2018-08-30T06:00:22.281Z,11.20
2018-08-30T06:00:56.217Z,12.20
2018-08-30T06:01:30.213Z,11.87
2018-08-30T06:02:04.120Z,11.90
2018-08-30T06:02:38.020Z,11.00
2018-08-30T06:03:11.919Z,11.70
2018-08-30T06:03:45.791Z,12.90
2018-08-30T06:04:21.684Z,11.47
2018-08-30T06:04:55.575Z,11.43
2018-08-30T06:05:29.628Z,11.60
2018-08-30T06:06:04.037Z,11.00
2018-08-30T06:06:37.974Z,11.37
2018-08-30T06:07:12.675Z,11.50
2018-08-30T06:07:46.943Z,11.70
2018-08-30T06:08:21.114Z,10.80
2018-08-30T06:08:55.123Z,12.00
2018-08-30T06:09:29.043Z,11.37
2018-08-30T06:10:03.285Z,11.60
2018-08-30T06:10:37.199Z,11.83
2018-08-30T06:11:11.209Z,11.80
2018-08-30T06:11:45.105Z,11.00
2018-08-30T06:12:19.023Z,10.77
2018-08-30T06:12:53.280Z,11.20
2018-08-30T06:13:27.477Z,12.43
2018-08-30T06:14:01.324Z,11.60
2018-08-30T06:14:35.404Z,12.23
2018-08-30T06:15:09.313Z,11.20
2018-08-30T06:15:43.193Z,11.60
2018-08-30T06:16:17.073Z,11.60
2018-08-30T06:16:51.284Z,12.37
2018-08-30T06:17:25.455Z,11.93
2018-08-30T06:17:59.668Z,12.07
2018-08-30T06:18:33.595Z,11.20
2018-08-30T06:19:07.475Z,11.80
2018-08-30T06:19:41.401Z,11.10
2018-08-30T06:20:15.289Z,12.10
2018-08-30T06:20:49.523Z,11.93
2018-08-30T06:21:23.439Z,11.37
2018-08-30T06:21:57.383Z,11.80
2018-08-30T06:22:31.259Z,12.03
2018-08-30T06:23:05.852Z,11.57
2018-08-30T06:23:39.714Z,12.53
2018-08-30T06:24:13.626Z,12.00
2018-08-30T06:24:47.540Z,12.10
2018-08-30T06:25:21.415Z,12.07
2018-08-30T06:25:55.525Z,13.10
2018-08-30T06:26:29.464Z,12.60
2018-08-30T06:27:03.417Z,11.83
2018-08-30T06:27:37.261Z,12.73
2018-08-30T06:28:11.941Z,12.10
2018-08-30T06:28:45.820Z,11.33
2018-08-30T06:29:19.870Z,11.83
2018-08-30T06:29:53.938Z,12.00
2018-08-30T06:30:27.821Z,12.63
2018-08-30T06:31:01.713Z,11.30
2018-08-30T06:31:35.628Z,13.17
2018-08-30T06:32:09.866Z,11.93
2018-08-30T06:32:43.768Z,12.43
2018-08-30T06:33:17.949Z,12.03
2018-08-30T06:33:52.200Z,13.20
2018-08-30T06:34:26.110Z,11.30
2018-08-30T06:35:00.047Z,12.90
2018-08-30T06:35:34.074Z,12.13
2018-08-30T06:36:08.569Z,12.13
2018-08-30T06:36:42.530Z,12.10
2018-08-30T06:37:16.405Z,11.70
2018-08-30T06:37:50.297Z,12.47
2018-08-30T06:38:24.181Z,11.10
2018-08-30T06:38:58.023Z,12.13
2018-08-30T06:39:31.921Z,12.30
2018-08-30T06:40:06.558Z,13.00
2018-08-30T06:40:40.502Z,13.27
2018-08-30T06:41:14.394Z,12.27
2018-08-30T06:41:48.224Z,12.63
2018-08-30T06:42:22.416Z,13.43
2018-08-30T06:42:56.381Z,12.90
2018-08-30T06:43:30.268Z,12.17
2018-08-30T06:44:04.517Z,12.03
2018-08-30T06:44:38.376Z,12.10
2018-08-30T06:45:16.685Z,12.30
2018-08-30T06:45:50.545Z,12.70
2018-08-30T06:46:24.387Z,13.20
2018-08-30T06:46:58.250Z,12.97
2018-08-30T06:47:32.106Z,13.37
2018-08-30T06:48:05.943Z,12.90
2018-08-30T06:48:39.940Z,11.90
2018-08-30T06:49:13.971Z,13.53
2018-08-30T06:49:48.185Z,13.30
2018-08-30T06:50:22.067Z,11.13
2018-08-30T06:50:56.161Z,12.33
2018-08-30T06:51:30.025Z,12.40
2018-08-30T06:52:04.223Z,12.00
2018-08-30T06:52:38.069Z,11.77
2018-08-30T06:53:11.958Z,12.97
2018-08-30T06:53:46.126Z,12.50
2018-08-30T06:54:20.011Z,13.80
2018-08-30T06:54:53.869Z,12.13
2018-08-30T06:55:27.819Z,12.83
2018-08-30T06:56:01.675Z,12.50
2018-08-30T06:56:35.582Z,12.30
2018-08-30T06:57:09.801Z,12.33
2018-08-30T06:57:43.677Z,12.70
2018-08-30T06:58:17.850Z,12.63
2018-08-30T06:58:52.047Z,11.30
2018-08-30T06:59:25.899Z,11.37
2018-08-30T06:59:59.755Z,12.53
2018-08-30T07:00:33.623Z,13.37
2018-08-30T07:01:07.460Z,12.23
2018-08-30T07:01:41.672Z,12.43
2018-08-30T07:02:15.631Z,12.37
2018-08-30T07:02:49.651Z,11.70
2018-08-30T07:03:23.554Z,13.10
2018-08-30T07:08:58.001Z,10.47
2018-08-30T07:09:31.935Z,11.60
2018-08-30T07:10:06.749Z,11.70
2018-08-30T07:10:41.117Z,12.57
2018-08-30T07:11:16.205Z,12.30
2018-08-30T07:11:50.157Z,11.20
2018-08-30T07:12:24.453Z,12.03
2018-08-30T07:12:58.447Z,12.60
2018-08-30T07:13:32.317Z,12.50
2018-08-30T07:14:06.897Z,12.03
2018-08-30T07:14:41.135Z,13.20
2018-08-30T07:15:15.555Z,12.87
2018-08-30T07:15:50.090Z,12.17
2018-08-30T07:16:24.059Z,12.23
2018-08-30T07:16:58.009Z,12.50
2018-08-30T07:17:31.882Z,12.60
2018-08-30T07:18:06.235Z,13.37
2018-08-30T07:18:40.125Z,12.63
2018-08-30T07:19:13.975Z,12.53
2018-08-30T07:19:47.875Z,12.70
2018-08-30T07:20:22.152Z,12.40
2018-08-30T07:20:56.045Z,12.43
2018-08-30T07:21:30.117Z,12.83
2018-08-30T07:22:04.425Z,12.30
2018-08-30T07:22:38.653Z,12.90
2018-08-30T07:23:16.323Z,12.10
2018-08-30T07:23:50.185Z,10.73
2018-08-30T07:24:24.501Z,13.07
2018-08-30T07:24:58.508Z,12.27
2018-08-30T07:25:32.355Z,10.80
2018-08-30T07:26:06.251Z,12.00
2018-08-30T07:26:40.499Z,12.43
2018-08-30T07:27:14.980Z,11.17
2018-08-30T07:27:48.851Z,11.00
2018-08-30T07:28:22.938Z,11.63
2018-08-30T07:28:56.986Z,11.70
2018-08-30T07:29:30.845Z,11.87
2018-08-30T07:30:06.710Z,12.00
2018-08-30T07:30:40.603Z,12.57
2018-08-30T07:31:14.500Z,11.70
2018-08-30T07:31:48.407Z,12.50
2018-08-30T07:32:22.297Z,12.53
2018-08-30T07:32:56.207Z,11.93
2018-08-30T07:33:30.111Z,13.33
2018-08-30T07:34:04.105Z,12.93
2018-08-30T07:34:38.270Z,12.60